sensor_id;sensor_type;location;lat;lon;timestamp;pressure;altitude;pressure_sealevel;temperature;humidity
51603;BME280;37954;51.980;5.850;2023-07-31T00:00:43;100671.34;;;17.15;87.30
51603;BME280;37954;51.980;5.850;2023-07-31T00:04:56;100662.41;;;17.20;87.15
51603;BME280;37954;51.980;5.850;2023-07-31T00:09:07;100649.09;;;17.18;87.29
51603;BME280;37954;51.980;5.850;2023-07-31T00:13:19;100642.03;;;17.17;87.41
51603;BME280;37954;51.980;5.850;2023-07-31T00:17:31;100646.94;;;17.25;87.58
51603;BME280;37954;51.980;5.850;2023-07-31T00:21:44;100630.34;;;17.17;87.61
51603;BME280;37954;51.980;5.850;2023-07-31T00:25:55;100626.81;;;17.16;87.94
51603;BME280;37954;51.980;5.850;2023-07-31T00:30:07;100624.94;;;17.22;87.49
51603;BME280;37954;51.980;5.850;2023-07-31T00:34:19;100612.72;;;17.19;87.52
51603;BME280;37954;51.980;5.850;2023-07-31T00:38:31;100618.97;;;17.20;87.92
51603;BME280;37954;51.980;5.850;2023-07-31T00:42:43;100617.06;;;17.20;87.88
51603;BME280;37954;51.980;5.850;2023-07-31T00:46:55;100606.75;;;17.22;88.43
51603;BME280;37954;51.980;5.850;2023-07-31T00:51:08;100610.31;;;17.28;88.79
51603;BME280;37954;51.980;5.850;2023-07-31T00:55:19;100603.50;;;17.35;89.13
51603;BME280;37954;51.980;5.850;2023-07-31T00:59:33;100579.34;;;17.29;90.22
51603;BME280;37954;51.980;5.850;2023-07-31T01:03:46;100589.38;;;17.38;90.63
51603;BME280;37954;51.980;5.850;2023-07-31T01:12:15;100582.84;;;17.50;91.74
51603;BME280;37954;51.980;5.850;2023-07-31T01:16:28;100587.47;;;17.54;92.26
51603;BME280;37954;51.980;5.850;2023-07-31T01:20:41;100585.56;;;17.60;93.83
51603;BME280;37954;51.980;5.850;2023-07-31T01:29:48;100582.88;;;17.65;94.19
51603;BME280;37954;51.980;5.850;2023-07-31T01:34:01;100581.50;;;17.67;93.79
51603;BME280;37954;51.980;5.850;2023-07-31T01:38:14;100586.94;;;17.62;94.55
51603;BME280;37954;51.980;5.850;2023-07-31T01:42:25;100570.09;;;17.55;94.76
51603;BME280;37954;51.980;5.850;2023-07-31T01:46:37;100565.47;;;17.61;94.43
51603;BME280;37954;51.980;5.850;2023-07-31T01:50:50;100570.91;;;17.61;94.88
51603;BME280;37954;51.980;5.850;2023-07-31T01:55:01;100567.41;;;17.65;94.97
51603;BME280;37954;51.980;5.850;2023-07-31T01:59:13;100553.53;;;17.62;94.89
51603;BME280;37954;51.980;5.850;2023-07-31T02:03:25;100565.19;;;17.62;95.13
51603;BME280;37954;51.980;5.850;2023-07-31T02:07:37;100550.81;;;17.52;95.23
51603;BME280;37954;51.980;5.850;2023-07-31T02:11:49;100554.59;;;17.51;95.36
51603;BME280;37954;51.980;5.850;2023-07-31T02:16:01;100554.59;;;17.56;95.28
51603;BME280;37954;51.980;5.850;2023-07-31T02:20:12;100546.19;;;17.52;95.57
51603;BME280;37954;51.980;5.850;2023-07-31T02:24:24;100550.56;;;17.48;95.96
51603;BME280;37954;51.980;5.850;2023-07-31T02:28:36;100548.66;;;17.44;95.99
51603;BME280;37954;51.980;5.850;2023-07-31T02:32:48;100540.22;;;17.40;96.36
51603;BME280;37954;51.980;5.850;2023-07-31T02:37:00;100548.91;;;17.42;95.98
51603;BME280;37954;51.980;5.850;2023-07-31T02:41:12;100537.53;;;17.45;95.83
51603;BME280;37954;51.980;5.850;2023-07-31T02:45:24;100516.88;;;17.34;96.17
51603;BME280;37954;51.980;5.850;2023-07-31T02:49:35;100544.59;;;17.46;96.33
51603;BME280;37954;51.980;5.850;2023-07-31T02:53:47;100530.47;;;17.44;96.20
51603;BME280;37954;51.980;5.850;2023-07-31T02:57:59;100534.25;;;17.43;95.90
51603;BME280;37954;51.980;5.850;2023-07-31T03:02:11;100531.81;;;17.47;96.08
51603;BME280;37954;51.980;5.850;2023-07-31T03:06:24;100517.97;;;17.43;96.36
51603;BME280;37954;51.980;5.850;2023-07-31T03:10:37;100530.16;;;17.51;96.21
51603;BME280;37954;51.980;5.850;2023-07-31T03:14:49;100529.34;;;17.50;96.04
51603;BME280;37954;51.980;5.850;2023-07-31T03:19:01;100523.41;;;17.48;95.73
51603;BME280;37954;51.980;5.850;2023-07-31T03:23:13;100533.44;;;17.48;95.58
51603;BME280;37954;51.980;5.850;2023-07-31T03:27:24;100514.44;;;17.37;95.29
51603;BME280;37954;51.980;5.850;2023-07-31T03:31:36;100530.47;;;17.44;95.05
51603;BME280;37954;51.980;5.850;2023-07-31T03:35:48;100523.94;;;17.40;94.71
51603;BME280;37954;51.980;5.850;2023-07-31T03:40:00;100518.50;;;17.40;94.14
51603;BME280;37954;51.980;5.850;2023-07-31T03:44:11;100523.41;;;17.43;94.03
51603;BME280;37954;51.980;5.850;2023-07-31T03:48:23;100526.13;;;17.43;93.83
51603;BME280;37954;51.980;5.850;2023-07-31T03:52:35;100523.66;;;17.42;93.42
51603;BME280;37954;51.980;5.850;2023-07-31T03:56:46;100519.88;;;17.37;93.26
51603;BME280;37954;51.980;5.850;2023-07-31T04:00:58;100495.72;;;17.26;93.21
51603;BME280;37954;51.980;5.850;2023-07-31T04:05:10;100520.41;;;17.39;93.04
51603;BME280;37954;51.980;5.850;2023-07-31T04:09:22;100512.53;;;17.38;92.70
51603;BME280;37954;51.980;5.850;2023-07-31T04:13:34;100514.97;;;17.39;92.40
51603;BME280;37954;51.980;5.850;2023-07-31T04:17:45;100510.63;;;17.38;92.30
51603;BME280;37954;51.980;5.850;2023-07-31T04:21:57;100503.84;;;17.41;92.15
51603;BME280;37954;51.980;5.850;2023-07-31T04:26:09;100507.38;;;17.42;92.13
51603;BME280;37954;51.980;5.850;2023-07-31T04:30:21;100495.44;;;17.37;92.00
51603;BME280;37954;51.980;5.850;2023-07-31T04:34:32;100498.16;;;17.43;91.90
51603;BME280;37954;51.980;5.850;2023-07-31T04:38:44;100488.09;;;17.38;91.72
51603;BME280;37954;51.980;5.850;2023-07-31T04:42:56;100478.03;;;17.44;91.49
51603;BME280;37954;51.980;5.850;2023-07-31T04:47:07;100477.22;;;17.48;91.29
51603;BME280;37954;51.980;5.850;2023-07-31T04:51:19;100479.91;;;17.53;90.90
51603;BME280;37954;51.980;5.850;2023-07-31T04:55:32;100488.06;;;17.53;90.88
51603;BME280;37954;51.980;5.850;2023-07-31T04:59:44;100478.31;;;17.47;90.79
51603;BME280;37954;51.980;5.850;2023-07-31T05:03:57;100475.56;;;17.52;90.53
51603;BME280;37954;51.980;5.850;2023-07-31T05:08:08;100468.25;;;17.48;90.56
51603;BME280;37954;51.980;5.850;2023-07-31T05:12:20;100467.97;;;17.49;90.35
51603;BME280;37954;51.980;5.850;2023-07-31T05:16:32;100462.28;;;17.46;90.23
51603;BME280;37954;51.980;5.850;2023-07-31T05:20:44;100455.78;;;17.47;90.07
51603;BME280;37954;51.980;5.850;2023-07-31T05:24:56;100449.25;;;17.48;89.94
51603;BME280;37954;51.980;5.850;2023-07-31T05:29:07;100461.44;;;17.50;89.86
51603;BME280;37954;51.980;5.850;2023-07-31T05:33:19;100450.06;;;17.43;90.28
51603;BME280;37954;51.980;5.850;2023-07-31T05:37:31;100459.31;;;17.42;90.51
51603;BME280;37954;51.980;5.850;2023-07-31T05:41:43;100453.88;;;17.37;91.00
51603;BME280;37954;51.980;5.850;2023-07-31T05:45:54;100447.94;;;17.30;91.28
51603;BME280;37954;51.980;5.850;2023-07-31T05:50:06;100448.75;;;17.25;92.01
51603;BME280;37954;51.980;5.850;2023-07-31T05:54:18;100451.75;;;17.19;92.41
51603;BME280;37954;51.980;5.850;2023-07-31T05:58:30;100442.78;;;17.18;93.04
51603;BME280;37954;51.980;5.850;2023-07-31T06:02:41;100431.38;;;17.16;93.58
51603;BME280;37954;51.980;5.850;2023-07-31T06:06:53;100434.38;;;17.20;93.96
51603;BME280;37954;51.980;5.850;2023-07-31T06:11:05;100413.47;;;17.20;94.26
51603;BME280;37954;51.980;5.850;2023-07-31T06:15:17;100414.81;;;17.28;94.34
51603;BME280;37954;51.980;5.850;2023-07-31T06:19:32;100397.72;;;17.27;94.50
51603;BME280;37954;51.980;5.850;2023-07-31T06:23:44;100413.97;;;17.32;94.99
51603;BME280;37954;51.980;5.850;2023-07-31T06:27:55;100404.47;;;17.35;95.09
51603;BME280;37954;51.980;5.850;2023-07-31T06:32:07;100403.09;;;17.43;95.36
51603;BME280;37954;51.980;5.850;2023-07-31T06:36:19;100395.22;;;17.41;95.93
51603;BME280;37954;51.980;5.850;2023-07-31T06:40:31;100378.94;;;17.41;96.64
51603;BME280;37954;51.980;5.850;2023-07-31T06:44:42;100381.59;;;17.51;96.56
51603;BME280;37954;51.980;5.850;2023-07-31T06:48:54;100371.25;;;17.58;96.56
51603;BME280;37954;51.980;5.850;2023-07-31T06:53:06;100374.22;;;17.62;96.62
51603;BME280;37954;51.980;5.850;2023-07-31T06:57:18;100378.34;;;17.64;96.94
51603;BME280;37954;51.980;5.850;2023-07-31T07:01:30;100375.03;;;17.62;96.93
51603;BME280;37954;51.980;5.850;2023-07-31T07:05:41;100365.81;;;17.63;97.14
51603;BME280;37954;51.980;5.850;2023-07-31T07:09:53;100363.66;;;17.65;97.00
51603;BME280;37954;51.980;5.850;2023-07-31T07:14:05;100364.69;;;17.69;97.59
51603;BME280;37954;51.980;5.850;2023-07-31T07:18:17;100370.09;;;17.80;97.62
51603;BME280;37954;51.980;5.850;2023-07-31T07:22:29;100362.44;;;17.87;97.63
51603;BME280;37954;51.980;5.850;2023-07-31T07:26:41;100353.44;;;17.91;97.74
51603;BME280;37954;51.980;5.850;2023-07-31T07:30:55;100345.56;;;17.95;98.05
51603;BME280;37954;51.980;5.850;2023-07-31T07:35:07;100353.44;;;17.91;97.58
51603;BME280;37954;51.980;5.850;2023-07-31T07:39:19;100358.06;;;17.96;97.92
51603;BME280;37954;51.980;5.850;2023-07-31T07:43:30;100351.00;;;17.90;97.89
51603;BME280;37954;51.980;5.850;2023-07-31T07:47:42;100351.28;;;17.88;98.43
51603;BME280;37954;51.980;5.850;2023-07-31T07:51:54;100346.66;;;17.89;98.31
51603;BME280;37954;51.980;5.850;2023-07-31T07:56:05;100345.03;;;17.88;98.60
51603;BME280;37954;51.980;5.850;2023-07-31T08:00:17;100342.03;;;17.94;98.57
51603;BME280;37954;51.980;5.850;2023-07-31T08:04:30;100333.59;;;17.96;98.44
51603;BME280;37954;51.980;5.850;2023-07-31T08:08:42;100343.63;;;18.00;98.69
51603;BME280;37954;51.980;5.850;2023-07-31T08:12:54;100332.75;;;18.00;98.74
51603;BME280;37954;51.980;5.850;2023-07-31T08:17:05;100334.59;;;18.05;98.75
51603;BME280;37954;51.980;5.850;2023-07-31T08:21:18;100332.66;;;18.11;98.82
51603;BME280;37954;51.980;5.850;2023-07-31T08:25:29;100326.59;;;18.19;98.76
51603;BME280;37954;51.980;5.850;2023-07-31T08:29:41;100329.25;;;18.29;98.92
51603;BME280;37954;51.980;5.850;2023-07-31T08:33:53;100325.16;;;18.31;98.64
51603;BME280;37954;51.980;5.850;2023-07-31T08:38:05;100314.56;;;18.30;98.19
51603;BME280;37954;51.980;5.850;2023-07-31T08:42:16;100309.13;;;18.30;98.04
51603;BME280;37954;51.980;5.850;2023-07-31T08:46:28;100310.94;;;18.39;98.42
51603;BME280;37954;51.980;5.850;2023-07-31T08:50:41;100311.69;;;18.50;98.31
51603;BME280;37954;51.980;5.850;2023-07-31T08:54:53;100327.94;;;18.60;98.08
51603;BME280;37954;51.980;5.850;2023-07-31T08:59:05;100325.16;;;18.65;97.93
51603;BME280;37954;51.980;5.850;2023-07-31T09:03:18;100323.25;;;18.66;97.92
51603;BME280;37954;51.980;5.850;2023-07-31T09:07:31;100324.81;;;18.72;97.99
51603;BME280;37954;51.980;5.850;2023-07-31T09:11:44;100322.69;;;18.69;97.63
51603;BME280;37954;51.980;5.850;2023-07-31T09:15:56;100322.16;;;18.67;97.57
51603;BME280;37954;51.980;5.850;2023-07-31T09:20:19;100330.09;;;18.63;97.67
51603;BME280;37954;51.980;5.850;2023-07-31T09:24:34;100323.28;;;18.61;97.72
51603;BME280;37954;51.980;5.850;2023-07-31T09:28:46;100312.13;;;18.62;97.90
51603;BME280;37954;51.980;5.850;2023-07-31T09:33:03;100309.59;;;18.71;98.02
51603;BME280;37954;51.980;5.850;2023-07-31T09:37:17;100289.72;;;18.70;97.89
51603;BME280;37954;51.980;5.850;2023-07-31T09:41:31;100304.91;;;18.76;97.74
51603;BME280;37954;51.980;5.850;2023-07-31T09:45:44;100301.56;;;18.85;97.67
51603;BME280;37954;51.980;5.850;2023-07-31T09:49:56;100282.56;;;18.80;97.10
51603;BME280;37954;51.980;5.850;2023-07-31T09:54:11;100285.53;;;18.83;96.97
51603;BME280;37954;51.980;5.850;2023-07-31T09:58:25;100286.34;;;18.84;96.90
51603;BME280;37954;51.980;5.850;2023-07-31T10:02:39;100287.59;;;18.91;96.83
51603;BME280;37954;51.980;5.850;2023-07-31T10:06:53;100285.94;;;18.95;96.52
51603;BME280;37954;51.980;5.850;2023-07-31T10:11:07;100297.34;;;18.97;95.89
51603;BME280;37954;51.980;5.850;2023-07-31T10:15:21;100281.28;;;18.96;95.98
51603;BME280;37954;51.980;5.850;2023-07-31T10:19:34;100274.91;;;19.05;95.89
51603;BME280;37954;51.980;5.850;2023-07-31T10:23:47;100279.19;;;19.11;95.68
51603;BME280;37954;51.980;5.850;2023-07-31T10:28:00;100285.03;;;19.24;95.50
51603;BME280;37954;51.980;5.850;2023-07-31T10:32:12;100288.22;;;19.31;95.05
51603;BME280;37954;51.980;5.850;2023-07-31T10:36:26;100287.47;;;19.25;94.21
51603;BME280;37954;51.980;5.850;2023-07-31T10:40:38;100296.09;;;19.32;94.12
51603;BME280;37954;51.980;5.850;2023-07-31T10:44:56;100290.94;;;19.31;93.76
51603;BME280;37954;51.980;5.850;2023-07-31T10:49:08;100281.59;;;19.37;93.95
51603;BME280;37954;51.980;5.850;2023-07-31T10:53:24;100286.09;;;19.46;93.77
51603;BME280;37954;51.980;5.850;2023-07-31T10:57:37;100273.97;;;19.58;93.91
51603;BME280;37954;51.980;5.850;2023-07-31T11:01:56;100285.63;;;19.63;93.48
51603;BME280;37954;51.980;5.850;2023-07-31T11:06:14;100280.91;;;19.69;93.17
51603;BME280;37954;51.980;5.850;2023-07-31T11:10:29;100262.13;;;19.67;93.24
51603;BME280;37954;51.980;5.850;2023-07-31T11:14:41;100274.88;;;19.72;93.16
51603;BME280;37954;51.980;5.850;2023-07-31T11:18:53;100272.75;;;19.69;92.90
51603;BME280;37954;51.980;5.850;2023-07-31T11:23:09;100268.81;;;19.75;93.30
51603;BME280;37954;51.980;5.850;2023-07-31T11:27:21;100269.50;;;19.67;93.51
51603;BME280;37954;51.980;5.850;2023-07-31T11:31:33;100281.84;;;19.59;93.47
51603;BME280;37954;51.980;5.850;2023-07-31T11:35:50;100271.47;;;19.61;93.47
51603;BME280;37954;51.980;5.850;2023-07-31T11:40:02;100263.31;;;19.61;93.43
51603;BME280;37954;51.980;5.850;2023-07-31T11:44:19;100268.09;;;19.69;93.64
51603;BME280;37954;51.980;5.850;2023-07-31T11:48:52;100266.53;;;19.82;93.85
51603;BME280;37954;51.980;5.850;2023-07-31T11:53:08;100262.94;;;19.87;93.51
51603;BME280;37954;51.980;5.850;2023-07-31T11:57:21;100265.34;;;19.88;93.33
51603;BME280;37954;51.980;5.850;2023-07-31T12:01:55;100271.00;;;19.92;92.90
51603;BME280;37954;51.980;5.850;2023-07-31T12:11:15;100250.00;;;19.92;92.33
51603;BME280;37954;51.980;5.850;2023-07-31T12:20:58;100273.69;;;20.10;91.59
51603;BME280;37954;51.980;5.850;2023-07-31T12:25:19;100256.63;;;20.05;91.41
51603;BME280;37954;51.980;5.850;2023-07-31T12:34:23;100266.97;;;20.08;91.13
51603;BME280;37954;51.980;5.850;2023-07-31T12:38:38;100257.53;;;20.00;91.03
51603;BME280;37954;51.980;5.850;2023-07-31T12:47:36;100244.88;;;19.91;91.77
51603;BME280;37954;51.980;5.850;2023-07-31T12:52:01;100245.91;;;19.76;92.14
51603;BME280;37954;51.980;5.850;2023-07-31T12:56:27;100250.06;;;19.73;92.65
51603;BME280;37954;51.980;5.850;2023-07-31T13:01:02;100242.88;;;19.77;92.65
51603;BME280;37954;51.980;5.850;2023-07-31T13:05:28;100241.41;;;19.85;92.72
51603;BME280;37954;51.980;5.850;2023-07-31T13:09:49;100218.84;;;19.98;93.05
51603;BME280;37954;51.980;5.850;2023-07-31T13:14:14;100208.97;;;20.16;93.22
51603;BME280;37954;51.980;5.850;2023-07-31T13:18:38;100209.13;;;20.25;92.66
51603;BME280;37954;51.980;5.850;2023-07-31T13:22:54;100226.88;;;20.22;92.07
51603;BME280;37954;51.980;5.850;2023-07-31T13:27:24;100222.03;;;20.33;91.74
51603;BME280;37954;51.980;5.850;2023-07-31T13:31:39;100210.66;;;20.44;91.35
51603;BME280;37954;51.980;5.850;2023-07-31T13:35:51;100209.97;;;20.53;90.77
51603;BME280;37954;51.980;5.850;2023-07-31T13:40:03;100207.25;;;20.53;90.03
51603;BME280;37954;51.980;5.850;2023-07-31T13:44:16;100197.03;;;20.44;89.79
51603;BME280;37954;51.980;5.850;2023-07-31T13:48:28;100179.66;;;20.40;89.79
51603;BME280;37954;51.980;5.850;2023-07-31T13:52:40;100183.84;;;20.33;89.69
51603;BME280;37954;51.980;5.850;2023-07-31T13:56:52;100189.22;;;20.24;90.36
51603;BME280;37954;51.980;5.850;2023-07-31T14:01:04;100181.13;;;20.19;90.50
51603;BME280;37954;51.980;5.850;2023-07-31T14:05:16;100184.94;;;20.18;90.51
51603;BME280;37954;51.980;5.850;2023-07-31T14:09:28;100173.44;;;20.07;90.83
51603;BME280;37954;51.980;5.850;2023-07-31T14:13:40;100171.59;;;20.03;90.98
51603;BME280;37954;51.980;5.850;2023-07-31T14:17:52;100165.72;;;19.96;91.35
51603;BME280;37954;51.980;5.850;2023-07-31T14:22:04;100167.31;;;19.97;91.38
51603;BME280;37954;51.980;5.850;2023-07-31T14:26:22;100161.88;;;19.97;91.65
51603;BME280;37954;51.980;5.850;2023-07-31T14:30:34;100171.66;;;19.98;92.32
51603;BME280;37954;51.980;5.850;2023-07-31T14:34:46;100185.16;;;20.08;92.33
51603;BME280;37954;51.980;5.850;2023-07-31T14:38:57;100177.34;;;20.01;92.36
51603;BME280;37954;51.980;5.850;2023-07-31T14:43:09;100175.00;;;19.95;92.57
51603;BME280;37954;51.980;5.850;2023-07-31T14:47:21;100156.19;;;19.79;92.76
51603;BME280;37954;51.980;5.850;2023-07-31T14:51:33;100143.25;;;19.71;93.27
51603;BME280;37954;51.980;5.850;2023-07-31T14:55:44;100148.78;;;19.66;93.49
51603;BME280;37954;51.980;5.850;2023-07-31T14:59:56;100147.75;;;19.62;93.78
51603;BME280;37954;51.980;5.850;2023-07-31T15:04:08;100137.34;;;19.64;94.18
51603;BME280;37954;51.980;5.850;2023-07-31T15:08:20;100139.50;;;19.67;94.03
51603;BME280;37954;51.980;5.850;2023-07-31T15:12:32;100137.50;;;19.73;94.48
51603;BME280;37954;51.980;5.850;2023-07-31T15:16:47;100124.16;;;19.71;94.51
51603;BME280;37954;51.980;5.850;2023-07-31T15:20:59;100119.22;;;19.73;94.22
51603;BME280;37954;51.980;5.850;2023-07-31T15:25:11;100113.47;;;19.75;94.10
51603;BME280;37954;51.980;5.850;2023-07-31T15:29:22;100099.66;;;19.71;94.25
51603;BME280;37954;51.980;5.850;2023-07-31T15:33:34;100093.47;;;19.66;93.93
51603;BME280;37954;51.980;5.850;2023-07-31T15:37:49;100086.91;;;19.67;93.98
51603;BME280;37954;51.980;5.850;2023-07-31T15:42:01;100080.66;;;19.66;94.04
51603;BME280;37954;51.980;5.850;2023-07-31T15:46:13;100067.91;;;19.62;94.09
51603;BME280;37954;51.980;5.850;2023-07-31T15:50:25;100063.69;;;19.56;94.07
51603;BME280;37954;51.980;5.850;2023-07-31T15:54:36;100056.31;;;19.56;94.24
51603;BME280;37954;51.980;5.850;2023-07-31T15:58:48;100043.50;;;19.57;94.19
51603;BME280;37954;51.980;5.850;2023-07-31T16:03:01;100041.78;;;19.61;94.45
51603;BME280;37954;51.980;5.850;2023-07-31T16:07:14;100030.56;;;19.62;94.35
51603;BME280;37954;51.980;5.850;2023-07-31T16:11:26;100022.00;;;19.69;94.19
51603;BME280;37954;51.980;5.850;2023-07-31T16:15:38;100027.47;;;19.69;93.54
51603;BME280;37954;51.980;5.850;2023-07-31T16:19:50;100018.19;;;19.56;93.74
51603;BME280;37954;51.980;5.850;2023-07-31T16:24:02;100022.09;;;19.50;93.88
51603;BME280;37954;51.980;5.850;2023-07-31T16:28:15;100000.75;;;19.38;94.35
51603;BME280;37954;51.980;5.850;2023-07-31T16:32:27;99981.81;;;19.15;94.82
51603;BME280;37954;51.980;5.850;2023-07-31T16:36:39;99996.47;;;19.19;94.98
51603;BME280;37954;51.980;5.850;2023-07-31T16:40:52;99994.84;;;19.18;95.12
51603;BME280;37954;51.980;5.850;2023-07-31T16:45:04;99988.66;;;19.12;95.38
51603;BME280;37954;51.980;5.850;2023-07-31T16:49:15;99976.25;;;19.06;95.70
51603;BME280;37954;51.980;5.850;2023-07-31T16:53:27;99976.94;;;18.98;96.28
51603;BME280;37954;51.980;5.850;2023-07-31T16:57:39;99983.19;;;18.98;96.95
51603;BME280;37954;51.980;5.850;2023-07-31T17:01:51;99959.97;;;18.87;97.31
51603;BME280;37954;51.980;5.850;2023-07-31T17:06:02;99946.97;;;18.84;97.60
51603;BME280;37954;51.980;5.850;2023-07-31T17:10:14;99945.19;;;18.74;97.92
51603;BME280;37954;51.980;5.850;2023-07-31T17:14:26;99944.09;;;18.75;98.04
51603;BME280;37954;51.980;5.850;2023-07-31T17:18:37;99926.44;;;18.73;98.41
51603;BME280;37954;51.980;5.850;2023-07-31T17:22:49;99927.53;;;18.72;98.45
51603;BME280;37954;51.980;5.850;2023-07-31T17:27:01;99931.69;;;18.69;98.60
51603;BME280;37954;51.980;5.850;2023-07-31T17:31:13;99923.53;;;18.69;99.03
51603;BME280;37954;51.980;5.850;2023-07-31T17:35:24;99918.91;;;18.70;99.04
51603;BME280;37954;51.980;5.850;2023-07-31T17:39:36;99914.34;;;18.65;99.27
51603;BME280;37954;51.980;5.850;2023-07-31T17:43:48;99906.47;;;18.64;99.40
51603;BME280;37954;51.980;5.850;2023-07-31T17:48:00;99905.09;;;18.66;99.44
51603;BME280;37954;51.980;5.850;2023-07-31T17:52:12;99890.66;;;18.66;99.43
51603;BME280;37954;51.980;5.850;2023-07-31T17:56:23;99904.28;;;18.66;99.92
51603;BME280;37954;51.980;5.850;2023-07-31T18:00:35;99896.47;;;18.59;100.00
51603;BME280;37954;51.980;5.850;2023-07-31T18:04:47;99905.19;;;18.56;100.00
51603;BME280;37954;51.980;5.850;2023-07-31T18:09:00;99893.00;;;18.54;100.00
51603;BME280;37954;51.980;5.850;2023-07-31T18:13:13;99899.19;;;18.59;100.00
51603;BME280;37954;51.980;5.850;2023-07-31T18:17:25;99884.53;;;18.55;100.00
51603;BME280;37954;51.980;5.850;2023-07-31T18:21:37;99859.06;;;18.51;100.00
51603;BME280;37954;51.980;5.850;2023-07-31T18:25:49;99872.84;;;18.55;100.00
51603;BME280;37954;51.980;5.850;2023-07-31T18:30:01;99878.69;;;18.48;100.00
51603;BME280;37954;51.980;5.850;2023-07-31T18:34:13;99856.41;;;18.46;100.00
51603;BME280;37954;51.980;5.850;2023-07-31T18:38:25;99860.81;;;18.42;100.00
51603;BME280;37954;51.980;5.850;2023-07-31T18:42:37;99849.34;;;18.45;100.00
51603;BME280;37954;51.980;5.850;2023-07-31T18:46:48;99868.03;;;18.52;100.00
51603;BME280;37954;51.980;5.850;2023-07-31T18:51:00;99854.63;;;18.55;100.00
51603;BME280;37954;51.980;5.850;2023-07-31T18:55:12;99866.41;;;18.51;100.00
51603;BME280;37954;51.980;5.850;2023-07-31T18:59:24;99880.00;;;18.51;100.00
51603;BME280;37954;51.980;5.850;2023-07-31T19:03:35;99888.88;;;18.56;100.00
51603;BME280;37954;51.980;5.850;2023-07-31T19:07:48;99863.06;;;18.54;100.00
51603;BME280;37954;51.980;5.850;2023-07-31T19:12:00;99859.75;;;18.57;100.00
51603;BME280;37954;51.980;5.850;2023-07-31T19:16:12;99841.63;;;18.52;100.00
51603;BME280;37954;51.980;5.850;2023-07-31T19:20:24;99842.06;;;18.59;100.00
51603;BME280;37954;51.980;5.850;2023-07-31T19:24:36;99826.91;;;18.53;100.00
51603;BME280;37954;51.980;5.850;2023-07-31T19:28:49;99817.63;;;18.54;100.00
51603;BME280;37954;51.980;5.850;2023-07-31T19:33:01;99813.63;;;18.52;100.00
51603;BME280;37954;51.980;5.850;2023-07-31T19:37:13;99796.88;;;18.44;100.00
51603;BME280;37954;51.980;5.850;2023-07-31T19:41:34;99806.66;;;18.46;100.00
51603;BME280;37954;51.980;5.850;2023-07-31T19:46:53;99816.22;;;18.43;100.00
51603;BME280;37954;51.980;5.850;2023-07-31T19:51:50;99822.09;;;18.50;100.00
51603;BME280;37954;51.980;5.850;2023-07-31T19:56:32;99818.25;;;18.51;100.00
51603;BME280;37954;51.980;5.850;2023-07-31T20:01:37;99804.41;;;18.34;100.00
51603;BME280;37954;51.980;5.850;2023-07-31T20:06:24;99813.38;;;18.34;100.00
51603;BME280;37954;51.980;5.850;2023-07-31T20:11:40;99820.59;;;18.25;100.00
51603;BME280;37954;51.980;5.850;2023-07-31T20:15:58;99806.94;;;18.12;100.00
51603;BME280;37954;51.980;5.850;2023-07-31T20:20:55;99818.03;;;18.15;100.00
51603;BME280;37954;51.980;5.850;2023-07-31T20:25:07;99786.38;;;18.05;100.00
51603;BME280;37954;51.980;5.850;2023-07-31T20:29:20;99775.53;;;17.87;100.00
51603;BME280;37954;51.980;5.850;2023-07-31T20:33:32;99804.59;;;18.05;100.00
51603;BME280;37954;51.980;5.850;2023-07-31T20:37:44;99787.25;;;18.01;100.00
51603;BME280;37954;51.980;5.850;2023-07-31T20:41:56;99775.38;;;17.97;100.00
51603;BME280;37954;51.980;5.850;2023-07-31T20:46:08;99785.66;;;18.00;100.00
51603;BME280;37954;51.980;5.850;2023-07-31T20:50:19;99768.63;;;17.94;100.00
51603;BME280;37954;51.980;5.850;2023-07-31T20:54:31;99775.38;;;17.97;100.00
51603;BME280;37954;51.980;5.850;2023-07-31T20:58:43;99775.59;;;18.00;100.00
51603;BME280;37954;51.980;5.850;2023-07-31T21:02:55;99767.81;;;17.94;99.82
51603;BME280;37954;51.980;5.850;2023-07-31T21:07:07;99761.50;;;17.98;99.69
51603;BME280;37954;51.980;5.850;2023-07-31T21:11:21;99721.91;;;17.92;99.52
51603;BME280;37954;51.980;5.850;2023-07-31T21:15:33;99724.94;;;17.91;99.25
51603;BME280;37954;51.980;5.850;2023-07-31T21:19:45;99708.81;;;17.81;98.88
51603;BME280;37954;51.980;5.850;2023-07-31T21:23:57;99711.59;;;17.76;98.66
51603;BME280;37954;51.980;5.850;2023-07-31T21:28:10;99720.63;;;17.71;98.43
51603;BME280;37954;51.980;5.850;2023-07-31T21:32:25;99721.00;;;17.64;98.17
51603;BME280;37954;51.980;5.850;2023-07-31T21:36:37;99715.97;;;17.53;97.89
51603;BME280;37954;51.980;5.850;2023-07-31T21:40:49;99711.00;;;17.60;98.20
51603;BME280;37954;51.980;5.850;2023-07-31T21:45:00;99692.06;;;17.55;98.33
51603;BME280;37954;51.980;5.850;2023-07-31T21:49:12;99671.66;;;17.57;98.42
51603;BME280;37954;51.980;5.850;2023-07-31T21:53:24;99657.63;;;17.50;98.42
51603;BME280;37954;51.980;5.850;2023-07-31T21:57:36;99666.88;;;17.49;98.30
51603;BME280;37954;51.980;5.850;2023-07-31T22:01:48;99665.06;;;17.45;98.13
51603;BME280;37954;51.980;5.850;2023-07-31T22:05:59;99659.94;;;17.43;98.29
51603;BME280;37954;51.980;5.850;2023-07-31T22:10:11;99658.81;;;17.44;98.45
51603;BME280;37954;51.980;5.850;2023-07-31T22:14:23;99661.97;;;17.51;98.40
51603;BME280;37954;51.980;5.850;2023-07-31T22:18:34;99652.72;;;17.52;98.91
51603;BME280;37954;51.980;5.850;2023-07-31T22:22:46;99638.03;;;17.53;98.77
51603;BME280;37954;51.980;5.850;2023-07-31T22:26:58;99632.59;;;17.53;98.64
51603;BME280;37954;51.980;5.850;2023-07-31T22:31:09;99634.28;;;17.49;98.67
51603;BME280;37954;51.980;5.850;2023-07-31T22:35:21;99625.66;;;17.47;98.61